createdAt,value
2023-10-28T00:00:48.668Z,16.53
2023-10-28T00:01:50.272Z,16.51
2023-10-28T00:02:51.983Z,16.55
2023-10-28T00:03:53.692Z,16.53
2023-10-28T00:04:55.329Z,16.56
2023-10-28T00:05:56.908Z,16.56
2023-10-28T00:06:58.505Z,16.47
2023-10-28T00:08:00.365Z,16.46
2023-10-28T00:09:02.009Z,16.51
2023-10-28T00:10:04.258Z,16.52
2023-10-28T00:11:07.658Z,16.54
2023-10-28T00:12:14.017Z,16.56
2023-10-28T00:13:15.622Z,16.57
2023-10-28T00:14:18.782Z,16.56
2023-10-28T00:15:20.358Z,16.56
2023-10-28T00:16:22.007Z,16.57
2023-10-28T00:17:25.280Z,16.48
2023-10-28T00:18:26.967Z,16.43
2023-10-28T00:19:30.340Z,16.33
2023-10-28T00:20:32.292Z,16.22
2023-10-28T00:21:33.968Z,16.15
2023-10-28T00:22:35.644Z,16.03
2023-10-28T00:23:37.439Z,15.93
2023-10-28T00:24:39.008Z,15.92
2023-10-28T00:25:40.910Z,16.00
2023-10-28T00:26:42.520Z,16.01
2023-10-28T00:27:44.553Z,16.04
2023-10-28T00:28:46.454Z,16.05
2023-10-28T00:29:53.314Z,16.00
2023-10-28T00:30:55.107Z,15.92
2023-10-28T00:31:56.734Z,15.93
2023-10-28T00:33:01.166Z,15.93
2023-10-28T00:34:02.860Z,15.98
2023-10-28T00:35:08.658Z,16.02
2023-10-28T00:36:12.331Z,16.04
2023-10-28T00:37:14.139Z,16.04
2023-10-28T00:38:15.735Z,16.04
2023-10-28T00:39:17.798Z,16.04
2023-10-28T00:40:19.769Z,16.02
2023-10-28T00:41:21.651Z,16.02
2023-10-28T00:42:23.366Z,15.99
2023-10-28T00:43:25.386Z,15.92
2023-10-28T00:44:26.955Z,15.80
2023-10-28T00:45:28.909Z,15.78
2023-10-28T00:46:30.758Z,15.80
2023-10-28T00:47:34.854Z,15.83
2023-10-28T00:48:36.567Z,15.88
2023-10-28T00:49:38.183Z,15.94
2023-10-28T00:50:40.081Z,15.94
2023-10-28T00:51:42.351Z,15.93
2023-10-28T00:52:51.993Z,16.01
2023-10-28T00:53:53.865Z,16.02
2023-10-28T00:54:57.764Z,15.99
2023-10-28T00:56:00.705Z,16.04
2023-10-28T00:57:03.122Z,15.87
2023-10-28T00:58:04.948Z,15.83
2023-10-28T00:59:07.813Z,15.79
2023-10-28T01:00:11.807Z,15.85
2023-10-28T01:01:15.218Z,15.87
2023-10-28T01:02:18.953Z,15.93
2023-10-28T01:03:20.725Z,15.97
2023-10-28T01:04:22.469Z,16.01
2023-10-28T01:05:24.147Z,16.02
2023-10-28T01:06:25.766Z,16.00
2023-10-28T01:07:28.214Z,16.02
2023-10-28T01:08:29.778Z,16.00
2023-10-28T01:09:31.441Z,15.93
2023-10-28T01:10:34.752Z,15.98
2023-10-28T01:11:42.570Z,15.91
2023-10-28T01:12:44.171Z,15.87
2023-10-28T01:13:45.846Z,15.77
2023-10-28T01:14:47.482Z,15.76
2023-10-28T01:15:49.114Z,15.77
2023-10-28T01:16:50.766Z,15.80
2023-10-28T01:17:52.434Z,15.84
2023-10-28T01:18:56.576Z,15.83
2023-10-28T01:19:59.168Z,15.90
2023-10-28T01:21:09.662Z,15.93
2023-10-28T01:22:11.247Z,16.00
2023-10-28T01:23:13.002Z,15.99
2023-10-28T01:24:14.573Z,15.97
2023-10-28T01:25:16.219Z,15.94
2023-10-28T01:26:18.059Z,15.89
2023-10-28T01:27:20.408Z,15.87
2023-10-28T01:28:22.146Z,15.84
2023-10-28T01:29:25.963Z,15.81
2023-10-28T01:30:28.167Z,15.75
2023-10-28T01:31:29.956Z,15.74
2023-10-28T01:32:31.815Z,15.81
2023-10-28T01:33:33.453Z,15.90
2023-10-28T01:34:48.452Z,15.93
2023-10-28T01:35:50.162Z,15.90
2023-10-28T01:36:51.983Z,15.97
2023-10-28T01:37:53.677Z,15.98
2023-10-28T01:38:55.353Z,15.98
2023-10-28T01:39:57.890Z,15.95
2023-10-28T01:40:59.510Z,15.95
2023-10-28T01:42:01.126Z,15.99
2023-10-28T01:43:03.115Z,16.08
2023-10-28T01:44:05.139Z,16.07
2023-10-28T01:45:08.452Z,16.07
2023-10-28T01:46:10.007Z,16.13
2023-10-28T01:47:11.684Z,16.19
2023-10-28T01:48:14.897Z,16.27
2023-10-28T01:49:16.538Z,16.33
2023-10-28T01:50:21.646Z,16.34
2023-10-28T01:51:23.441Z,16.39
2023-10-28T01:52:25.484Z,16.39
2023-10-28T01:53:31.646Z,16.42
2023-10-28T01:54:34.429Z,16.43
2023-10-28T01:55:36.073Z,16.41
2023-10-28T01:56:38.054Z,16.44
2023-10-28T01:57:40.429Z,16.41
2023-10-28T01:58:42.005Z,16.45
2023-10-28T01:59:45.041Z,16.44
2023-10-28T02:00:46.933Z,16.40
2023-10-28T02:01:48.495Z,16.31
2023-10-28T02:02:51.857Z,16.27
2023-10-28T02:03:54.431Z,16.24
2023-10-28T02:04:56.161Z,16.21
2023-10-28T02:05:57.726Z,16.19
2023-10-28T02:07:00.023Z,16.16
2023-10-28T02:08:01.642Z,16.06
2023-10-28T02:09:04.190Z,16.05
2023-10-28T02:10:06.487Z,16.06
2023-10-28T02:11:08.637Z,15.97
2023-10-28T02:12:10.269Z,15.89
2023-10-28T02:13:14.002Z,15.91
2023-10-28T02:14:15.950Z,15.93
2023-10-28T02:15:17.897Z,15.92
2023-10-28T02:16:19.950Z,15.92
2023-10-28T02:17:21.519Z,15.94
2023-10-28T02:18:24.098Z,15.95
2023-10-28T02:19:25.956Z,15.93
2023-10-28T02:20:29.508Z,15.99
2023-10-28T02:21:31.113Z,15.98
2023-10-28T02:22:33.105Z,15.94
2023-10-28T02:23:34.732Z,15.91
2023-10-28T02:24:36.341Z,15.98
2023-10-28T02:25:37.902Z,16.00
2023-10-28T02:26:39.564Z,15.90
2023-10-28T02:27:41.174Z,15.72
2023-10-28T02:28:42.771Z,15.75
2023-10-28T02:29:44.537Z,15.70
2023-10-28T02:30:46.297Z,15.69
2023-10-28T02:31:48.195Z,15.61
2023-10-28T02:32:49.875Z,15.56
2023-10-28T02:33:51.599Z,15.52
2023-10-28T02:34:53.322Z,15.44
2023-10-28T02:35:54.879Z,15.54
2023-10-28T02:36:56.519Z,15.51
2023-10-28T02:37:58.194Z,15.55
2023-10-28T02:39:01.261Z,15.56
2023-10-28T02:40:03.741Z,15.57
2023-10-28T02:41:08.801Z,15.59
2023-10-28T02:42:10.521Z,15.60
2023-10-28T02:43:12.118Z,15.67
2023-10-28T02:44:13.755Z,15.73
2023-10-28T02:45:15.674Z,15.66
2023-10-28T02:46:24.592Z,15.69
2023-10-28T02:47:26.810Z,15.73
2023-10-28T02:48:29.375Z,15.74
2023-10-28T02:49:31.536Z,15.77
2023-10-28T02:50:36.459Z,15.81
2023-10-28T02:51:38.401Z,15.80
2023-10-28T02:52:39.970Z,15.81
2023-10-28T02:53:41.606Z,15.80
2023-10-28T02:54:43.186Z,15.80
2023-10-28T02:55:44.828Z,15.91
2023-10-28T02:56:46.367Z,15.88
2023-10-28T02:57:47.993Z,15.91
2023-10-28T02:58:50.225Z,15.96
2023-10-28T02:59:51.785Z,16.01
2023-10-28T03:00:56.336Z,16.10
2023-10-28T03:01:58.747Z,16.13
2023-10-28T03:03:00.533Z,16.12
2023-10-28T03:04:02.150Z,16.19
2023-10-28T03:05:06.233Z,16.18
2023-10-28T03:06:08.199Z,16.18
2023-10-28T03:07:09.843Z,16.21
2023-10-28T03:08:11.532Z,16.22
2023-10-28T03:09:13.559Z,16.16
2023-10-28T03:10:15.262Z,16.16
2023-10-28T03:11:16.869Z,16.18
2023-10-28T03:12:18.899Z,16.20
2023-10-28T03:13:20.472Z,16.17
2023-10-28T03:14:22.080Z,16.22
2023-10-28T03:15:25.864Z,16.22
2023-10-28T03:16:27.703Z,16.16
2023-10-28T03:17:29.462Z,16.13
2023-10-28T03:18:31.172Z,16.12
2023-10-28T03:19:32.775Z,16.15
2023-10-28T03:20:34.466Z,16.09
2023-10-28T03:21:36.080Z,16.08
2023-10-28T03:22:37.958Z,16.10
2023-10-28T03:23:39.586Z,16.14
2023-10-28T03:24:41.162Z,16.14
2023-10-28T03:25:42.841Z,16.20
2023-10-28T03:26:44.408Z,16.19
2023-10-28T03:27:47.182Z,16.18
2023-10-28T03:28:50.684Z,16.22
2023-10-28T03:29:53.419Z,16.14
2023-10-28T03:30:55.045Z,16.08
2023-10-28T03:31:56.615Z,16.13
2023-10-28T03:32:58.672Z,16.13
2023-10-28T03:34:00.765Z,16.19
2023-10-28T03:35:02.560Z,16.24
2023-10-28T03:36:06.043Z,16.27
2023-10-28T03:37:07.735Z,16.24
2023-10-28T03:38:10.571Z,16.23
2023-10-28T03:39:12.699Z,16.12
2023-10-28T03:40:14.716Z,16.02
2023-10-28T03:41:16.467Z,16.04
2023-10-28T03:42:18.095Z,16.10
2023-10-28T03:43:19.732Z,16.16
2023-10-28T03:44:21.669Z,16.17
2023-10-28T03:45:23.384Z,16.19
2023-10-28T03:46:26.438Z,16.19
2023-10-28T03:47:30.467Z,16.11
2023-10-28T03:48:32.499Z,16.08
2023-10-28T03:49:34.454Z,16.10
2023-10-28T03:50:36.633Z,16.13
2023-10-28T03:51:39.784Z,16.12
2023-10-28T03:52:41.489Z,16.17
2023-10-28T03:53:43.197Z,16.18
2023-10-28T03:54:44.782Z,16.20
2023-10-28T03:55:46.376Z,16.19
2023-10-28T03:56:48.836Z,16.19
2023-10-28T03:57:50.420Z,16.15
2023-10-28T03:58:52.543Z,16.08
2023-10-28T03:59:54.306Z,16.05
2023-10-28T04:00:56.038Z,16.05
2023-10-28T04:01:57.807Z,16.00
2023-10-28T04:02:59.409Z,16.01
2023-10-28T04:04:00.958Z,16.05
2023-10-28T04:05:02.619Z,16.09
2023-10-28T04:06:07.454Z,16.11
2023-10-28T04:07:09.420Z,16.05
2023-10-28T04:08:11.083Z,16.03
2023-10-28T04:09:15.252Z,16.04
2023-10-28T04:10:16.863Z,16.01
2023-10-28T04:11:18.489Z,15.98
2023-10-28T04:12:20.084Z,15.95
2023-10-28T04:13:21.848Z,15.94
2023-10-28T04:14:24.252Z,15.90
2023-10-28T04:15:26.452Z,15.92
2023-10-28T04:16:28.152Z,15.89
2023-10-28T04:17:32.887Z,15.86
2023-10-28T04:18:34.669Z,15.72
2023-10-28T04:19:36.263Z,15.67
2023-10-28T04:20:39.071Z,15.68
2023-10-28T04:21:40.818Z,15.62
2023-10-28T04:22:42.404Z,15.58
2023-10-28T04:23:44.489Z,15.40
2023-10-28T04:24:46.223Z,15.53
2023-10-28T04:25:47.873Z,15.45
2023-10-28T04:26:49.536Z,15.40
2023-10-28T04:27:51.907Z,15.33
2023-10-28T04:28:53.575Z,15.31
2023-10-28T04:29:55.587Z,15.30
2023-10-28T04:30:58.159Z,15.30
2023-10-28T04:31:59.813Z,15.23
2023-10-28T04:33:01.608Z,15.12
2023-10-28T04:34:04.526Z,15.08
2023-10-28T04:35:15.652Z,15.05
2023-10-28T04:36:28.317Z,15.07
2023-10-28T04:37:29.955Z,14.87
2023-10-28T04:38:31.572Z,14.86
2023-10-28T04:39:33.163Z,14.84
2023-10-28T04:40:37.174Z,14.70
2023-10-28T04:41:38.750Z,14.55
2023-10-28T04:42:40.366Z,14.59
2023-10-28T04:43:41.972Z,14.56
2023-10-28T04:44:44.738Z,14.55
2023-10-28T04:45:46.719Z,14.44
2023-10-28T04:46:48.336Z,14.42
2023-10-28T04:47:50.411Z,14.43
2023-10-28T04:48:52.005Z,14.39
2023-10-28T04:49:53.654Z,14.37
2023-10-28T04:50:55.688Z,14.20
2023-10-28T04:51:57.471Z,14.15
2023-10-28T04:52:59.076Z,14.10
2023-10-28T04:54:00.667Z,14.00
2023-10-28T04:55:02.282Z,13.95
2023-10-28T04:56:04.125Z,13.95
2023-10-28T04:57:05.793Z,13.98
2023-10-28T04:58:07.530Z,14.05
2023-10-28T04:59:11.271Z,14.07
2023-10-28T05:00:14.746Z,14.14
2023-10-28T05:01:16.432Z,14.18
2023-10-28T05:02:18.051Z,14.16
2023-10-28T05:03:21.276Z,14.15
2023-10-28T05:04:26.579Z,14.16
2023-10-28T05:05:28.186Z,14.19
2023-10-28T05:06:30.104Z,14.16
2023-10-28T05:07:31.744Z,14.12
2023-10-28T05:08:33.521Z,14.16
2023-10-28T05:09:37.278Z,14.16
2023-10-28T05:10:38.885Z,14.16
2023-10-28T05:11:40.459Z,14.08
2023-10-28T05:12:42.170Z,14.08
2023-10-28T05:13:44.069Z,14.16
2023-10-28T05:14:48.496Z,14.19
2023-10-28T05:15:50.115Z,14.19
2023-10-28T05:16:53.944Z,14.22
2023-10-28T05:17:55.651Z,14.25
2023-10-28T05:18:57.591Z,14.26
2023-10-28T05:19:59.254Z,14.29
2023-10-28T05:21:00.919Z,14.32
2023-10-28T05:22:04.905Z,14.35
2023-10-28T05:23:06.495Z,14.46
2023-10-28T05:24:08.574Z,14.45
2023-10-28T05:25:10.655Z,14.52
2023-10-28T05:26:12.314Z,14.50
2023-10-28T05:27:14.038Z,14.63
2023-10-28T05:28:15.803Z,14.69
2023-10-28T05:29:17.718Z,14.76
2023-10-28T05:30:19.504Z,14.73
2023-10-28T05:31:22.390Z,14.73
2023-10-28T05:32:24.178Z,14.67
2023-10-28T05:33:25.982Z,14.69
2023-10-28T05:34:27.557Z,14.80
2023-10-28T05:35:29.168Z,14.90
2023-10-28T05:36:30.788Z,14.96
2023-10-28T05:37:32.400Z,15.03
2023-10-28T05:38:34.038Z,15.12
2023-10-28T05:39:35.656Z,15.14
2023-10-28T05:40:37.294Z,15.13
2023-10-28T05:41:38.926Z,15.11
2023-10-28T05:42:41.793Z,15.04
2023-10-28T05:43:43.428Z,15.10
2023-10-28T05:44:45.130Z,15.14
2023-10-28T05:45:46.802Z,15.23
2023-10-28T05:46:48.561Z,15.29
2023-10-28T05:47:50.236Z,15.42
2023-10-28T05:48:52.140Z,15.55
2023-10-28T05:49:54.219Z,15.67
2023-10-28T05:50:59.166Z,15.77
2023-10-28T05:52:01.216Z,15.93
2023-10-28T05:53:02.854Z,15.97
2023-10-28T05:54:05.369Z,16.11
2023-10-28T05:55:08.469Z,16.24
2023-10-28T05:56:10.123Z,16.35
2023-10-28T05:57:11.715Z,16.39
2023-10-28T05:58:13.342Z,16.51
2023-10-28T05:59:16.056Z,16.56
2023-10-28T06:00:18.039Z,16.69
2023-10-28T06:01:19.655Z,16.80
2023-10-28T06:02:21.451Z,16.93
2023-10-28T06:03:23.226Z,17.03
2023-10-28T06:04:24.906Z,17.11
2023-10-28T06:05:26.806Z,17.19
2023-10-28T06:06:32.132Z,17.24
2023-10-28T06:07:34.298Z,17.37
2023-10-28T06:08:35.921Z,17.44
2023-10-28T06:09:37.555Z,17.51
2023-10-28T06:10:39.167Z,17.52
2023-10-28T06:11:41.289Z,17.65
2023-10-28T06:12:43.089Z,17.72
2023-10-28T06:13:44.699Z,17.78
2023-10-28T06:14:46.420Z,17.80
2023-10-28T06:15:48.117Z,17.83
2023-10-28T06:16:50.700Z,17.92
2023-10-28T06:17:52.402Z,17.93
2023-10-28T06:18:56.673Z,18.03
2023-10-28T06:19:58.290Z,18.12
2023-10-28T06:20:59.849Z,18.18
2023-10-28T06:22:01.990Z,18.23
2023-10-28T06:23:07.522Z,18.29
2023-10-28T06:24:09.470Z,18.27
2023-10-28T06:25:11.124Z,18.36
2023-10-28T06:26:12.726Z,18.49
2023-10-28T06:27:14.274Z,18.55
2023-10-28T06:28:15.895Z,18.60
2023-10-28T06:29:17.529Z,18.66
2023-10-28T06:30:19.238Z,18.60
2023-10-28T06:31:21.736Z,18.86
2023-10-28T06:32:23.427Z,18.89
2023-10-28T06:33:25.532Z,18.87
2023-10-28T06:34:30.190Z,18.98
2023-10-28T06:35:31.839Z,19.03
2023-10-28T06:36:34.631Z,19.05
2023-10-28T06:37:40.878Z,19.06
2023-10-28T06:38:42.545Z,19.13
2023-10-28T06:39:48.876Z,19.19
2023-10-28T06:40:51.756Z,19.22
2023-10-28T06:41:53.386Z,19.25
2023-10-28T06:42:54.989Z,19.28
2023-10-28T06:43:59.029Z,19.31
2023-10-28T06:45:00.649Z,19.32
2023-10-28T06:46:02.267Z,19.39
2023-10-28T06:47:04.616Z,19.44
2023-10-28T06:48:06.342Z,19.53
2023-10-28T06:49:09.583Z,19.58
2023-10-28T06:50:11.227Z,19.68
2023-10-28T06:51:14.030Z,19.81
2023-10-28T06:52:15.594Z,19.96
2023-10-28T06:53:17.265Z,20.08
2023-10-28T06:54:19.906Z,20.25
2023-10-28T06:55:21.670Z,20.43
2023-10-28T06:56:23.344Z,20.59
2023-10-28T06:57:24.952Z,20.85
2023-10-28T06:58:26.776Z,21.15
2023-10-28T06:59:28.339Z,21.43
2023-10-28T07:00:30.066Z,21.72
2023-10-28T07:01:31.788Z,22.12
2023-10-28T07:02:33.818Z,22.49
2023-10-28T07:03:35.642Z,22.86
2023-10-28T07:04:37.302Z,23.12
2023-10-28T07:05:39.942Z,23.46
2023-10-28T07:06:42.573Z,23.73
2023-10-28T07:07:46.117Z,24.01
2023-10-28T07:08:47.820Z,24.40
2023-10-28T07:09:49.888Z,24.80
2023-10-28T07:10:51.674Z,25.13
2023-10-28T07:11:54.316Z,25.50
2023-10-28T07:12:56.006Z,25.84
2023-10-28T07:13:57.623Z,26.19
2023-10-28T07:15:01.040Z,26.47
2023-10-28T07:16:06.341Z,26.83
2023-10-28T07:17:08.004Z,27.05
2023-10-28T07:18:09.981Z,27.28
2023-10-28T07:19:13.419Z,27.48
2023-10-28T07:20:16.858Z,27.69
2023-10-28T07:21:18.603Z,27.92
2023-10-28T07:22:24.196Z,28.16
2023-10-28T07:23:29.095Z,28.52
2023-10-28T07:24:30.692Z,28.80
2023-10-28T07:25:32.248Z,29.06
2023-10-28T07:26:34.161Z,29.36
2023-10-28T07:27:35.766Z,29.60
2023-10-28T07:28:38.819Z,29.73
2023-10-28T07:29:40.465Z,29.90
2023-10-28T07:30:46.366Z,30.15
2023-10-28T07:31:49.086Z,30.29
2023-10-28T07:32:51.938Z,30.41
2023-10-28T07:33:53.625Z,30.54
2023-10-28T07:34:55.233Z,30.62
2023-10-28T07:35:56.903Z,30.76
2023-10-28T07:37:04.732Z,30.89
2023-10-28T07:38:06.314Z,30.92
2023-10-28T07:39:07.970Z,30.98
2023-10-28T07:40:12.466Z,30.97
2023-10-28T07:41:14.139Z,30.99
2023-10-28T07:42:17.008Z,30.97
2023-10-28T07:43:19.039Z,30.97
2023-10-28T07:44:20.741Z,30.98
2023-10-28T07:45:22.322Z,31.03
2023-10-28T07:46:27.477Z,30.96
2023-10-28T07:47:29.133Z,31.15
2023-10-28T07:48:31.528Z,31.18
2023-10-28T07:49:33.873Z,31.35
2023-10-28T07:50:36.182Z,31.58
2023-10-28T07:51:37.834Z,31.75
2023-10-28T07:52:39.428Z,32.01
2023-10-28T07:53:41.055Z,32.18
2023-10-28T07:54:42.707Z,32.35
2023-10-28T07:55:44.259Z,32.53
2023-10-28T07:56:45.896Z,32.77
2023-10-28T07:57:47.497Z,33.10
2023-10-28T07:58:51.992Z,33.42
2023-10-28T07:59:54.389Z,33.70
2023-10-28T08:00:56.002Z,34.00
2023-10-28T08:01:59.438Z,34.25
2023-10-28T08:03:02.018Z,34.37
2023-10-28T08:04:07.801Z,34.46
2023-10-28T08:05:11.275Z,34.56
2023-10-28T08:06:20.353Z,34.54
2023-10-28T08:07:26.061Z,34.09
2023-10-28T08:08:31.241Z,34.04
2023-10-28T08:09:32.889Z,34.31
2023-10-28T08:10:34.512Z,34.34
2023-10-28T08:11:36.636Z,34.47
2023-10-28T08:12:39.760Z,34.76
2023-10-28T08:13:41.688Z,34.91
2023-10-28T08:14:48.080Z,35.09
2023-10-28T08:15:53.893Z,35.30
2023-10-28T08:16:57.636Z,35.59
2023-10-28T08:17:59.736Z,35.69
2023-10-28T08:19:02.344Z,35.94
2023-10-28T08:20:07.201Z,36.21
2023-10-28T08:21:09.003Z,36.43
2023-10-28T08:22:13.384Z,36.60
2023-10-28T08:23:15.023Z,36.73
2023-10-28T08:24:17.776Z,36.80
2023-10-28T08:25:19.522Z,36.86
2023-10-28T08:26:21.138Z,36.80
2023-10-28T08:27:22.853Z,36.83
2023-10-28T08:28:24.487Z,36.79
2023-10-28T08:29:26.259Z,36.83
2023-10-28T08:30:29.414Z,36.92
2023-10-28T08:31:31.036Z,36.94
2023-10-28T08:32:33.522Z,36.97
2023-10-28T08:33:38.848Z,36.85
2023-10-28T08:34:40.415Z,36.47
2023-10-28T08:35:42.055Z,35.95
2023-10-28T08:36:43.818Z,35.67
2023-10-28T08:37:45.366Z,35.66
2023-10-28T08:38:49.082Z,35.68
2023-10-28T08:39:51.045Z,35.17
2023-10-28T08:40:52.644Z,34.88
2023-10-28T08:41:55.430Z,34.79
2023-10-28T08:42:59.664Z,34.84
2023-10-28T08:44:05.675Z,35.20
2023-10-28T08:45:10.222Z,35.57
2023-10-28T08:46:13.715Z,35.92
2023-10-28T08:47:18.450Z,36.25
2023-10-28T08:48:22.162Z,36.40
2023-10-28T08:49:24.473Z,36.26
2023-10-28T08:50:26.660Z,35.96
2023-10-28T08:51:28.369Z,35.96
2023-10-28T08:52:33.766Z,35.82
2023-10-28T08:53:37.690Z,35.92
2023-10-28T08:54:41.009Z,36.12
2023-10-28T08:55:45.741Z,36.16
2023-10-28T08:56:48.374Z,36.07
2023-10-28T08:57:50.113Z,35.93
2023-10-28T08:58:53.595Z,36.02
2023-10-28T08:59:55.389Z,36.41
2023-10-28T09:01:00.794Z,36.68
2023-10-28T09:02:09.153Z,36.88
2023-10-28T09:03:12.824Z,37.03
2023-10-28T09:04:16.337Z,37.08
2023-10-28T09:05:18.173Z,37.13
2023-10-28T09:06:20.900Z,36.76
2023-10-28T09:07:22.490Z,36.60
2023-10-28T09:08:24.935Z,36.67
2023-10-28T09:09:29.054Z,36.40
2023-10-28T09:10:31.280Z,36.13
2023-10-28T09:11:33.437Z,36.24
2023-10-28T09:12:35.628Z,36.25
2023-10-28T09:13:38.147Z,36.11
2023-10-28T09:14:40.133Z,36.29
2023-10-28T09:15:41.896Z,36.42
2023-10-28T09:16:43.555Z,36.44
2023-10-28T09:17:45.285Z,36.60
2023-10-28T09:18:46.883Z,36.53
2023-10-28T09:19:48.615Z,36.53
2023-10-28T09:20:50.397Z,36.43
2023-10-28T09:21:53.180Z,36.61
2023-10-28T09:22:54.801Z,36.72
2023-10-28T09:24:01.606Z,36.68
2023-10-28T09:25:04.474Z,36.55
2023-10-28T09:26:06.864Z,36.36
2023-10-28T09:27:11.434Z,36.30
2023-10-28T09:28:17.201Z,36.47
2023-10-28T09:29:26.710Z,36.53
2023-10-28T09:30:29.716Z,36.50
2023-10-28T09:31:31.699Z,36.51
2023-10-28T09:32:37.054Z,36.40
2023-10-28T09:33:39.418Z,36.16
2023-10-28T09:34:42.695Z,36.33
2023-10-28T09:35:46.662Z,36.24
2023-10-28T09:36:51.463Z,35.85
2023-10-28T09:37:55.040Z,35.57
2023-10-28T09:38:57.188Z,35.62
2023-10-28T09:39:59.865Z,35.86
2023-10-28T09:41:03.173Z,35.93
2023-10-28T09:42:05.591Z,35.71
2023-10-28T09:43:08.389Z,35.09
2023-10-28T09:44:11.422Z,34.68
2023-10-28T09:45:13.027Z,34.74
2023-10-28T09:46:21.381Z,34.86
2023-10-28T09:47:23.873Z,35.08
2023-10-28T09:48:32.989Z,35.23
2023-10-28T09:49:40.701Z,35.06
2023-10-28T09:50:50.407Z,34.94
2023-10-28T09:51:57.583Z,35.24
2023-10-28T09:52:59.533Z,35.39
2023-10-28T09:54:06.658Z,35.25
2023-10-28T09:55:12.386Z,34.97
2023-10-28T09:56:14.520Z,34.84
2023-10-28T09:57:17.873Z,34.74
2023-10-28T09:58:21.427Z,34.58
2023-10-28T09:59:27.363Z,34.73
2023-10-28T10:00:32.012Z,34.61
2023-10-28T10:02:02.909Z,34.83
2023-10-28T10:03:29.946Z,34.87
2023-10-28T10:04:45.643Z,34.99
2023-10-28T10:05:48.491Z,35.28
2023-10-28T10:06:50.299Z,35.25
2023-10-28T10:07:53.773Z,35.28
2023-10-28T10:08:56.487Z,35.34
2023-10-28T10:10:11.288Z,34.96
2023-10-28T10:11:13.010Z,35.07
2023-10-28T10:12:14.839Z,34.95
2023-10-28T10:13:16.880Z,35.04
2023-10-28T10:14:21.151Z,35.28
2023-10-28T10:15:23.860Z,35.39
2023-10-28T10:16:43.257Z,35.39
2023-10-28T10:18:12.030Z,35.79
2023-10-28T10:19:21.832Z,36.02
2023-10-28T10:20:27.324Z,35.94
2023-10-28T10:21:33.878Z,35.75
2023-10-28T10:22:36.635Z,35.31
2023-10-28T10:23:45.590Z,35.38
2023-10-28T10:24:50.901Z,35.30
2023-10-28T10:25:55.781Z,35.26
2023-10-28T10:26:59.550Z,35.24
2023-10-28T10:28:27.396Z,35.28
2023-10-28T10:29:41.502Z,35.17
2023-10-28T10:30:46.405Z,34.76
2023-10-28T10:31:58.703Z,34.50
2023-10-28T10:33:05.055Z,34.57
2023-10-28T10:34:08.764Z,34.49
2023-10-28T10:35:33.099Z,33.97
2023-10-28T10:36:47.985Z,34.22
2023-10-28T10:38:10.535Z,33.92
2023-10-28T10:39:16.081Z,33.47
2023-10-28T10:40:22.505Z,33.33
2023-10-28T10:41:29.348Z,33.01
2023-10-28T10:42:31.330Z,32.67
2023-10-28T10:43:33.606Z,32.32
2023-10-28T10:44:40.417Z,31.92
2023-10-28T10:45:42.555Z,31.90
2023-10-28T10:46:44.518Z,31.57
2023-10-28T10:47:47.767Z,31.59
2023-10-28T10:48:49.861Z,31.81
2023-10-28T10:49:51.543Z,31.88
2023-10-28T10:50:53.363Z,31.77
2023-10-28T10:51:55.054Z,31.86
2023-10-28T10:52:57.843Z,31.80
2023-10-28T10:53:59.430Z,31.73
2023-10-28T10:55:01.967Z,31.84
2023-10-28T10:56:03.768Z,31.74
2023-10-28T10:57:07.487Z,31.65
2023-10-28T10:58:09.121Z,31.58
2023-10-28T10:59:10.969Z,31.58
2023-10-28T11:00:13.817Z,31.45
2023-10-28T11:01:16.563Z,31.50
2023-10-28T11:02:18.940Z,31.54
2023-10-28T11:03:22.972Z,31.15
2023-10-28T11:04:32.142Z,30.70
2023-10-28T11:05:33.839Z,30.49
2023-10-28T11:06:36.667Z,30.33
2023-10-28T11:07:38.241Z,29.99
2023-10-28T11:08:40.968Z,29.89
2023-10-28T11:09:43.353Z,29.58
2023-10-28T11:10:47.238Z,29.44
2023-10-28T11:11:49.216Z,29.25
2023-10-28T11:12:51.576Z,29.26
2023-10-28T11:13:53.545Z,29.18
2023-10-28T11:14:56.116Z,28.93
2023-10-28T11:15:58.552Z,28.81
2023-10-28T11:17:01.219Z,28.64
2023-10-28T11:18:03.205Z,28.48
2023-10-28T11:19:06.119Z,28.26
2023-10-28T11:20:11.091Z,28.06
2023-10-28T11:21:15.687Z,28.04
2023-10-28T11:22:18.486Z,27.89
2023-10-28T11:23:21.150Z,27.74
2023-10-28T11:24:23.858Z,27.66
2023-10-28T11:25:33.106Z,27.68
2023-10-28T11:26:36.260Z,27.78
2023-10-28T11:27:39.406Z,27.80
2023-10-28T11:28:40.987Z,27.94
2023-10-28T11:29:42.750Z,27.97
2023-10-28T11:30:52.177Z,27.94
2023-10-28T11:31:54.242Z,27.94
2023-10-28T11:32:56.053Z,27.82
2023-10-28T11:34:03.075Z,27.75
2023-10-28T11:35:04.995Z,27.77
2023-10-28T11:36:07.297Z,27.80
2023-10-28T11:37:10.255Z,27.79
2023-10-28T11:38:12.049Z,27.88
2023-10-28T11:39:16.954Z,27.91
2023-10-28T11:40:22.305Z,27.90
2023-10-28T11:41:26.239Z,27.78
2023-10-28T11:42:28.644Z,27.73
2023-10-28T11:43:30.237Z,27.55
2023-10-28T11:44:32.015Z,27.48
2023-10-28T11:45:33.730Z,27.48
2023-10-28T11:46:35.392Z,27.50
2023-10-28T11:47:37.100Z,27.55
2023-10-28T11:48:39.298Z,27.64
2023-10-28T11:49:40.907Z,27.67
2023-10-28T11:50:44.498Z,27.66
2023-10-28T11:51:46.343Z,27.61
2023-10-28T11:52:50.606Z,27.56
2023-10-28T11:53:52.834Z,27.52
2023-10-28T11:54:54.898Z,27.22
2023-10-28T11:55:56.857Z,27.21
2023-10-28T11:56:58.433Z,27.23
2023-10-28T11:58:00.051Z,27.31
2023-10-28T11:59:02.851Z,27.33
2023-10-28T12:00:08.243Z,27.32
2023-10-28T12:01:09.958Z,27.37
2023-10-28T12:02:11.634Z,27.38
2023-10-28T12:03:14.294Z,27.44
2023-10-28T12:04:16.345Z,27.40
2023-10-28T12:05:17.991Z,27.36
2023-10-28T12:06:29.482Z,27.28
2023-10-28T12:07:32.144Z,27.24
2023-10-28T12:08:34.297Z,27.10
2023-10-28T12:09:38.702Z,27.15
2023-10-28T12:10:44.539Z,27.29
2023-10-28T12:11:47.415Z,27.31
2023-10-28T12:12:49.065Z,27.26
2023-10-28T12:13:50.639Z,27.34
2023-10-28T12:14:52.231Z,27.39
2023-10-28T12:15:53.875Z,27.42
2023-10-28T12:16:55.460Z,27.48
2023-10-28T12:17:57.087Z,27.54
2023-10-28T12:18:58.833Z,27.46
2023-10-28T12:20:00.413Z,27.33
2023-10-28T12:21:02.111Z,27.24
2023-10-28T12:22:03.907Z,27.21
2023-10-28T12:23:05.602Z,27.15
2023-10-28T12:24:07.848Z,27.07
2023-10-28T12:25:14.883Z,26.99
2023-10-28T12:26:18.911Z,26.92
2023-10-28T12:27:21.341Z,26.95
2023-10-28T12:28:23.913Z,26.98
2023-10-28T12:29:26.282Z,27.01
2023-10-28T12:30:28.434Z,27.07
2023-10-28T12:31:30.033Z,27.08
2023-10-28T12:32:31.759Z,27.11
2023-10-28T12:33:35.501Z,27.12
2023-10-28T12:34:38.900Z,27.04
2023-10-28T12:35:40.950Z,27.01
2023-10-28T12:36:43.925Z,26.98
2023-10-28T12:37:45.728Z,26.88
2023-10-28T12:38:47.770Z,26.81
2023-10-28T12:39:49.383Z,26.74
2023-10-28T12:40:50.954Z,26.81
2023-10-28T12:41:52.653Z,26.81
2023-10-28T12:42:54.383Z,26.67
2023-10-28T12:43:55.974Z,26.77
2023-10-28T12:44:57.761Z,26.73
2023-10-28T12:45:59.438Z,26.71
2023-10-28T12:47:01.076Z,26.72
2023-10-28T12:48:03.301Z,26.69
2023-10-28T12:49:04.933Z,26.73
2023-10-28T12:50:07.002Z,26.72
2023-10-28T12:51:09.855Z,26.59
2023-10-28T12:52:11.467Z,26.51
2023-10-28T12:53:14.619Z,26.49
2023-10-28T12:54:16.242Z,26.46
2023-10-28T12:55:18.317Z,26.46
2023-10-28T12:56:19.913Z,26.51
2023-10-28T12:57:22.564Z,26.52
2023-10-28T12:58:24.765Z,26.59
2023-10-28T12:59:29.012Z,26.60
2023-10-28T13:00:30.698Z,26.55
2023-10-28T13:01:33.109Z,26.62
2023-10-28T13:02:34.932Z,26.62
2023-10-28T13:03:37.032Z,26.59
2023-10-28T13:04:41.502Z,26.59
2023-10-28T13:05:43.386Z,26.53
2023-10-28T13:06:46.190Z,26.53
2023-10-28T13:07:47.787Z,26.55
2023-10-28T13:08:49.462Z,26.55
2023-10-28T13:09:51.159Z,26.63
2023-10-28T13:10:54.946Z,26.65
2023-10-28T13:12:00.349Z,26.61
2023-10-28T13:13:02.209Z,26.47
2023-10-28T13:14:04.206Z,26.59
2023-10-28T13:15:06.607Z,26.62
2023-10-28T13:16:09.445Z,26.67
2023-10-28T13:17:11.737Z,26.69
2023-10-28T13:18:13.761Z,26.69
2023-10-28T13:19:15.458Z,26.74
2023-10-28T13:20:18.124Z,26.79
2023-10-28T13:21:19.762Z,26.91
2023-10-28T13:22:22.704Z,26.95
2023-10-28T13:23:24.395Z,27.00
2023-10-28T13:24:26.121Z,27.05
2023-10-28T13:25:27.810Z,27.06
2023-10-28T13:26:30.733Z,26.97
2023-10-28T13:27:32.635Z,27.00
2023-10-28T13:28:34.232Z,26.92
2023-10-28T13:29:35.856Z,26.80
2023-10-28T13:30:41.396Z,26.81